Time;durP1;ratioP1;P1;durP2;ratioP2;P2;SDS_P1;SDS_P2;PMS_P1;PMS_P2;Temp;Humidity;BMP_temperature;BMP_pressure;BME280_temperature;BME280_humidity;BME280_pressure;Samples;Min_cycle;Max_cycle;Signal;HPM_P1;HPM_P2
2020/12/26 00:01:13;;;;;;;9.25;2.88;;;;;;;2.65;100.00;102617.13;5096611;28;20110;-83
2020/12/26 00:03:38;;;;;;;10.85;2.70;;;;;;;2.70;99.77;102623.31;5093152;28;20028;-83
2020/12/26 00:06:04;;;;;;;9.45;3.05;;;;;;;2.68;99.90;102619.81;5091475;28;20040;-83
2020/12/26 00:08:29;;;;;;;6.57;2.63;;;;;;;2.71;99.93;102623.34;5091310;28;20443;-82
2020/12/26 00:10:55;;;;;;;6.88;2.47;;;;;;;2.76;99.58;102632.16;5093259;28;20020;-83
2020/12/26 00:13:21;;;;;;;6.97;2.60;;;;;;;2.80;99.42;102636.53;5095385;28;20512;-82
2020/12/26 00:15:46;;;;;;;7.85;2.75;;;;;;;2.82;99.45;102634.84;5091396;28;20019;-82
2020/12/26 00:18:11;;;;;;;6.78;2.40;;;;;;;2.82;100.00;102634.84;5090494;28;20066;-83
2020/12/26 00:20:37;;;;;;;12.98;2.22;;;;;;;2.97;100.00;102631.59;5095029;28;20020;-82
2020/12/26 00:23:02;;;;;;;7.53;1.90;;;;;;;3.00;100.00;102635.97;5099878;28;20065;-83
2020/12/26 00:25:27;;;;;;;5.97;2.00;;;;;;;3.07;100.00;102635.22;5095345;28;20032;-83
2020/12/26 00:27:53;;;;;;;5.32;1.55;;;;;;;3.17;100.00;102638.88;5095621;28;20019;-84
2020/12/26 00:30:18;;;;;;;7.90;1.92;;;;;;;3.17;100.00;102629.28;5098405;28;20034;-83
2020/12/26 00:32:43;;;;;;;4.43;1.55;;;;;;;3.20;100.00;102629.31;5095833;28;20034;-83
2020/12/26 00:35:08;;;;;;;4.60;1.50;;;;;;;3.23;100.00;102616.31;5092596;28;20038;-84
2020/12/26 00:37:34;;;;;;;9.88;1.58;;;;;;;3.29;100.00;102611.16;5097183;28;20500;-83
2020/12/26 00:39:59;;;;;;;5.18;1.83;;;;;;;3.30;100.00;102612.03;5092468;28;20055;-84
2020/12/26 00:42:24;;;;;;;3.50;1.40;;;;;;;3.29;100.00;102610.28;5093696;28;20032;-83
2020/12/26 00:44:50;;;;;;;4.78;1.45;;;;;;;3.27;100.00;102612.88;5090598;28;20061;-83
2020/12/26 00:47:15;;;;;;;5.20;1.60;;;;;;;3.23;100.00;102605.84;5092111;28;20032;-83
2020/12/26 00:49:41;;;;;;;5.07;1.23;;;;;;;3.20;100.00;102597.94;5092754;28;20031;-83
2020/12/26 00:52:07;;;;;;;6.70;1.42;;;;;;;3.24;100.00;102604.09;5099089;28;20027;-83
2020/12/26 00:54:32;;;;;;;6.25;1.30;;;;;;;3.22;100.00;102598.88;5095726;28;20020;-82
2020/12/26 00:56:57;;;;;;;4.70;1.60;;;;;;;3.20;100.00;102602.31;5093241;28;20054;-82
2020/12/26 00:59:22;;;;;;;3.30;0.95;;;;;;;3.23;100.00;102608.47;5082036;28;20580;-82
2020/12/26 01:01:55;;;;;;;6.07;0.95;;;;;;;3.22;100.00;102601.50;5088989;28;20065;-82
2020/12/26 01:04:20;;;;;;;1.88;0.93;;;;;;;3.19;100.00;102601.44;5090910;28;20023;-82
2020/12/26 01:06:52;;;;;;;1.65;0.90;;;;;;;3.21;100.00;102604.06;5094253;28;20047;-82
2020/12/26 01:09:18;;;;;;;2.63;0.65;;;;;;;3.16;100.00;102593.53;5092331;28;20115;-82
2020/12/26 01:11:43;;;;;;;6.57;0.90;;;;;;;3.10;100.00;102594.34;5092022;28;20043;-82
2020/12/26 01:14:08;;;;;;;1.83;0.80;;;;;;;3.21;100.00;102589.25;5092145;28;20047;-82
2020/12/26 01:16:33;;;;;;;5.53;0.70;;;;;;;3.20;100.00;102584.88;5093167;28;20062;-83
2020/12/26 01:18:59;;;;;;;4.18;0.70;;;;;;;3.19;100.00;102590.09;5090511;28;20035;-83
2020/12/26 01:21:24;;;;;;;4.18;0.55;;;;;;;3.13;100.00;102585.69;5094572;28;20020;-82
2020/12/26 01:23:49;;;;;;;2.40;0.60;;;;;;;3.07;100.00;102585.59;5070586;28;20028;-82
2020/12/26 01:26:15;;;;;;;0.32;0.20;;;;;;;3.11;100.00;102588.28;5097865;28;20063;-82
2020/12/26 01:28:40;;;;;;;2.47;0.70;;;;;;;3.11;100.00;102587.38;5095234;28;20031;-83
2020/12/26 01:31:05;;;;;;;3.08;0.57;;;;;;;3.09;100.00;102582.13;5095798;28;20463;-83
2020/12/26 01:33:31;;;;;;;4.10;0.68;;;;;;;3.06;100.00;102591.66;5080318;28;20081;-82
2020/12/26 01:35:56;;;;;;;4.40;0.77;;;;;;;3.08;100.00;102590.84;5093088;28;20024;-82
2020/12/26 01:38:21;;;;;;;3.80;0.80;;;;;;;3.08;100.00;102577.78;5094452;28;20028;-82
2020/12/26 01:40:50;;;;;;;9.07;0.80;;;;;;;3.06;100.00;102566.44;5089677;28;20465;-82
2020/12/26 01:43:16;;;;;;;4.15;0.65;;;;;;;3.01;100.00;102568.09;5091905;28;20058;-82
2020/12/26 01:45:41;;;;;;;2.47;0.70;;;;;;;3.00;100.00;102568.94;5097243;28;20689;-82
2020/12/26 01:48:09;;;;;;;4.43;0.80;;;;;;;2.95;100.00;102572.34;5089853;28;20020;-82
2020/12/26 01:50:34;;;;;;;2.75;0.65;;;;;;;2.88;100.00;102579.22;5073052;28;20602;-82
2020/12/26 01:53:00;;;;;;;1.95;0.77;;;;;;;2.88;100.00;102578.34;5102654;28;20074;-83
2020/12/26 01:55:25;;;;;;;1.55;0.75;;;;;;;2.91;100.00;102571.41;5083599;28;20555;-82
2020/12/26 01:57:53;;;;;;;4.15;0.77;;;;;;;2.90;100.00;102572.28;5093201;28;20020;-82
2020/12/26 02:00:19;;;;;;;14.23;0.93;;;;;;;2.84;100.00;102570.44;5097383;28;20038;-82
2020/12/26 02:02:45;;;;;;;2.35;0.90;;;;;;;2.86;100.00;102565.25;5092415;28;20024;-83
2020/12/26 02:05:11;;;;;;;3.88;0.80;;;;;;;2.83;100.00;102568.69;5097147;28;20052;-80
2020/12/26 02:07:36;;;;;;;2.83;0.80;;;;;;;2.82;100.00;102566.94;5093827;28;20024;-81
2020/12/26 02:10:02;;;;;;;6.30;1.10;;;;;;;2.88;100.00;102579.22;5076767;28;20016;-82
2020/12/26 02:12:29;;;;;;;5.95;1.25;;;;;;;2.84;100.00;102572.19;5093134;28;20096;-81
2020/12/26 02:14:55;;;;;;;6.32;1.42;;;;;;;2.85;100.00;102580.03;5092709;28;20016;-81
2020/12/26 02:17:27;;;;;;;6.05;0.98;;;;;;;2.90;100.00;102571.41;5095989;28;20024;-81
2020/12/26 02:19:52;;;;;;;6.07;0.98;;;;;;;2.84;100.00;102570.44;5096247;28;20032;-82
2020/12/26 02:22:18;;;;;;;4.38;0.98;;;;;;;2.88;100.00;102570.50;5095288;28;20085;-81
2020/12/26 02:24:43;;;;;;;7.97;0.90;;;;;;;2.85;100.00;102560.88;5095059;28;20043;-81
2020/12/26 02:27:08;;;;;;;5.60;0.90;;;;;;;2.84;100.00;102559.13;5099662;28;20039;-78
2020/12/26 02:29:34;;;;;;;2.65;0.98;;;;;;;2.83;100.00;102550.41;5099000;28;20610;-79
2020/12/26 02:31:59;;;;;;;2.95;0.75;;;;;;;2.78;100.00;102554.69;5097460;28;20028;-79
2020/12/26 02:34:24;;;;;;;6.80;1.20;;;;;;;2.74;100.00;102557.22;5079399;28;20034;-79
2020/12/26 02:36:50;;;;;;;4.32;0.93;;;;;;;2.73;100.00;102543.31;5079262;28;20509;-79
2020/12/26 02:39:15;;;;;;;12.80;1.25;;;;;;;2.78;99.32;102540.75;5102838;28;20507;-79
2020/12/26 02:41:40;;;;;;;6.57;1.00;;;;;;;2.87;99.26;102545.25;5101985;28;20028;-80
2020/12/26 02:44:06;;;;;;;4.63;1.25;;;;;;;2.70;100.00;102532.81;5103353;28;20564;-79
2020/12/26 02:46:31;;;;;;;5.75;1.15;;;;;;;2.66;100.00;102536.25;5099707;28;20488;-78
2020/12/26 02:48:56;;;;;;;3.30;1.15;;;;;;;2.63;100.00;102517.91;5102273;28;20415;-78
2020/12/26 02:51:22;;;;;;;8.18;0.95;;;;;;;2.73;100.00;102511.97;5100310;28;20122;-79
2020/12/26 02:53:47;;;;;;;5.20;1.20;;;;;;;2.77;99.70;102505.06;5101620;28;20049;-79
2020/12/26 02:56:13;;;;;;;5.72;1.75;;;;;;;2.78;99.26;102496.38;5101238;28;20081;-81
2020/12/26 02:58:40;;;;;;;7.20;1.23;;;;;;;2.78;99.23;102489.41;5094749;28;20514;-81
2020/12/26 03:01:06;;;;;;;5.40;1.20;;;;;;;2.88;98.19;102476.50;5097240;28;20028;-81
2020/12/26 03:03:32;;;;;;;6.93;1.15;;;;;;;3.01;96.96;102478.38;5094232;28;20040;-80
2020/12/26 03:05:57;;;;;;;8.32;0.93;;;;;;;2.98;96.95;102467.91;5099929;28;20031;-81
2020/12/26 03:08:22;;;;;;;4.45;1.00;;;;;;;2.90;97.67;102466.94;5102019;28;20436;-78
2020/12/26 03:10:48;;;;;;;8.25;1.25;;;;;;;2.89;97.32;102449.50;5100818;28;20049;-80
2020/12/26 03:13:13;;;;;;;3.47;0.90;;;;;;;2.97;96.53;102446.16;5093530;28;20044;-80
2020/12/26 03:15:38;;;;;;;2.22;0.80;;;;;;;2.90;96.62;102440.81;5075013;28;20055;-81
2020/12/26 03:18:04;;;;;;;8.25;1.63;;;;;;;2.89;96.65;102421.66;5096375;28;20103;-80
2020/12/26 03:20:29;;;;;;;8.27;1.30;;;;;;;2.89;96.48;102433.84;5104104;28;20385;-81
2020/12/26 03:22:54;;;;;;;5.50;0.95;;;;;;;2.94;95.87;102422.59;5099545;28;20392;-79
2020/12/26 03:25:20;;;;;;;4.20;1.08;;;;;;;2.91;95.66;102416.44;5098190;28;20028;-79
2020/12/26 03:27:45;;;;;;;6.53;1.10;;;;;;;2.90;95.87;102412.09;5096427;28;20032;-82
2020/12/26 03:30:11;;;;;;;9.85;1.40;;;;;;;2.84;96.22;102420.72;5103724;28;20028;-82
2020/12/26 03:32:36;;;;;;;12.45;2.42;;;;;;;2.90;95.30;102423.41;5097059;28;20016;-81
2020/12/26 03:35:03;;;;;;;18.40;1.73;;;;;;;2.90;96.10;102425.13;5097912;28;20412;-81
2020/12/26 03:37:29;;;;;;;4.95;0.88;;;;;;;2.82;96.49;102428.53;5094176;28;20522;-81
2020/12/26 03:39:54;;;;;;;5.10;0.95;;;;;;;2.82;96.79;102438.13;5098859;28;20028;-81
2020/12/26 03:42:19;;;;;;;2.72;0.88;;;;;;;2.74;97.83;102444.97;5097605;28;20162;-82
2020/12/26 03:44:45;;;;;;;10.23;1.33;;;;;;;2.80;97.76;102445.03;5100390;28;20016;-81
2020/12/26 03:47:11;;;;;;;8.05;1.50;;;;;;;2.74;98.52;102448.44;5096875;28;20032;-81
2020/12/26 03:49:37;;;;;;;4.63;2.22;;;;;;;2.78;98.04;102439.81;5099594;28;20020;-81
2020/12/26 03:52:03;;;;;;;8.85;1.48;;;;;;;2.84;97.73;102434.66;5095014;28;20416;-81
2020/12/26 03:54:29;;;;;;;4.95;1.10;;;;;;;2.85;98.04;102432.91;5095614;28;20032;-81
2020/12/26 03:56:54;;;;;;;9.02;0.80;;;;;;;2.81;98.30;102429.41;5099874;28;20042;-81
2020/12/26 03:59:20;;;;;;;6.93;1.00;;;;;;;2.88;98.13;102439.94;5097577;28;20035;-81
2020/12/26 04:01:45;;;;;;;4.68;1.02;;;;;;;2.81;98.21;102429.41;5099919;28;20023;-81
2020/12/26 04:04:13;;;;;;;9.60;1.42;;;;;;;2.84;98.31;102420.72;5094607;28;20043;-81
2020/12/26 04:06:40;;;;;;;3.75;1.05;;;;;;;2.75;98.73;102425.81;5076484;28;20027;-81
2020/12/26 04:09:05;;;;;;;6.47;0.90;;;;;;;2.76;98.59;102425.88;5093277;28;20484;-81
2020/12/26 04:11:30;;;;;;;6.50;0.90;;;;;;;2.68;99.00;102421.38;5097747;28;20039;-81
2020/12/26 04:13:56;;;;;;;7.00;1.00;;;;;;;2.66;99.00;102423.09;5093057;28;20044;-81
2020/12/26 04:16:21;;;;;;;4.00;1.05;;;;;;;2.64;99.05;102425.69;5074199;28;20057;-81
2020/12/26 04:18:46;;;;;;;6.22;1.33;;;;;;;2.56;99.33;102415.16;5098616;28;20048;-81
2020/12/26 04:21:11;;;;;;;4.90;1.10;;;;;;;2.57;99.24;102416.03;5093289;28;20026;-81
2020/12/26 04:23:37;;;;;;;9.63;1.52;;;;;;;2.57;99.03;102418.63;5075599;28;20032;-81
2020/12/26 04:26:07;;;;;;;4.45;1.17;;;;;;;2.56;99.05;102415.16;5095097;28;20462;-81
2020/12/26 04:28:32;;;;;;;3.22;1.20;;;;;;;2.62;98.46;102413.47;5093239;28;20027;-81
2020/12/26 04:30:57;;;;;;;2.97;0.90;;;;;;;2.60;98.41;102405.59;5097115;28;20047;-81
2020/12/26 04:33:23;;;;;;;2.90;0.90;;;;;;;2.61;98.30;102410.00;5096469;28;20034;-81
2020/12/26 04:35:48;;;;;;;2.35;0.60;;;;;;;2.60;98.26;102392.56;5096074;28;20020;-81
2020/12/26 04:38:13;;;;;;;8.55;0.95;;;;;;;2.57;97.76;102393.41;5098240;28;20035;-81
2020/12/26 04:40:39;;;;;;;5.00;1.08;;;;;;;2.55;98.07;102392.50;5073730;28;20118;-81
2020/12/26 04:43:06;;;;;;;8.60;1.58;;;;;;;2.57;97.83;102392.53;5092803;28;20028;-81
2020/12/26 04:45:35;;;;;;;6.65;1.08;;;;;;;2.65;97.37;102387.41;5096444;28;20023;-80
2020/12/26 04:48:12;;;;;;;4.32;0.93;;;;;;;2.69;97.02;102387.47;5099370;28;20042;-81
2020/12/26 04:50:44;;;;;;;3.13;1.05;;;;;;;2.67;97.05;102377.88;5093477;28;20023;-81
2020/12/26 04:53:14;;;;;;;4.15;1.02;;;;;;;2.58;97.37;102378.63;5096932;28;20027;-81
2020/12/26 04:55:50;;;;;;;9.25;1.77;;;;;;;2.55;97.58;102373.34;5076101;28;20403;-80
2020/12/26 04:58:17;;;;;;;5.43;0.90;;;;;;;2.60;97.18;102364.72;5073040;28;20024;-81
2020/12/26 05:00:43;;;;;;;4.82;1.08;;;;;;;2.63;96.76;102352.56;5102140;28;20023;-78
2020/12/26 05:03:14;;;;;;;3.45;1.00;;;;;;;2.55;97.53;102347.25;5093316;28;20033;-81
2020/12/26 05:05:44;;;;;;;15.25;1.02;;;;;;;2.54;97.38;102355.94;5096963;28;20026;-81
2020/12/26 05:08:13;;;;;;;8.73;1.17;;;;;;;2.52;97.60;102368.09;5090328;28;20031;-81
2020/12/26 05:10:40;;;;;;;6.20;1.05;;;;;;;2.61;96.86;102363.00;5095105;28;20035;-81
2020/12/26 05:13:09;;;;;;;1.95;0.85;;;;;;;2.63;97.07;102355.19;5090064;28;20070;-81
2020/12/26 05:15:34;;;;;;;8.52;3.50;;;;;;;2.66;97.21;102365.66;5097054;28;20030;-81
2020/12/26 05:18:00;;;;;;;5.13;1.00;;;;;;;2.57;97.72;102363.81;5098540;28;20032;-81
2020/12/26 05:20:27;;;;;;;8.00;1.10;;;;;;;2.52;97.92;102357.66;5091012;28;20024;-81
2020/12/26 05:23:14;;;;;;;4.78;1.02;;;;;;;2.44;98.75;102351.47;5098867;28;20015;-81
2020/12/26 05:25:50;;;;;;;8.35;1.25;;;;;;;2.44;99.37;102347.13;5094481;28;20404;-81
2020/12/26 05:28:27;;;;;;;5.93;1.35;;;;;;;2.51;99.38;102348.06;5097862;28;20057;-81
2020/12/26 05:30:52;;;;;;;4.82;1.50;;;;;;;2.47;99.54;102339.34;5101565;28;20028;-81
2020/12/26 05:33:19;;;;;;;3.47;1.13;;;;;;;2.44;100.00;102341.03;5092169;28;20519;-81
2020/12/26 05:35:49;;;;;;;15.30;2.25;;;;;;;2.47;100.00;102339.34;5101943;28;20015;-81
2020/12/26 05:38:16;;;;;;;4.28;1.98;;;;;;;2.51;100.00;102337.63;5099092;28;20035;-81
2020/12/26 05:41:06;;;;;;;5.82;1.60;;;;;;;2.53;100.00;102344.63;5095061;28;20031;-81
2020/12/26 05:43:32;;;;;;;5.32;1.30;;;;;;;2.60;100.00;102353.41;5095927;28;20035;-80
2020/12/26 05:46:00;;;;;;;3.67;1.60;;;;;;;2.65;100.00;102356.94;5096890;28;20034;-81
2020/12/26 05:48:27;;;;;;;5.70;1.38;;;;;;;2.70;100.00;102357.88;5090999;28;20032;-81
2020/12/26 05:51:01;;;;;;;10.00;1.65;;;;;;;2.73;100.00;102346.59;5095545;28;20020;-81
2020/12/26 05:53:28;;;;;;;9.90;1.58;;;;;;;2.80;99.96;102345.81;5096154;28;20528;-81
2020/12/26 05:55:54;;;;;;;9.18;1.98;;;;;;;2.79;100.00;102342.31;5097961;28;20488;-81
2020/12/26 05:58:25;;;;;;;7.90;1.55;;;;;;;2.82;100.00;102351.94;5099315;28;20055;-80
2020/12/26 06:00:51;;;;;;;7.40;2.20;;;;;;;2.88;99.89;102354.63;5099981;28;20419;-81
2020/12/26 06:03:22;;;;;;;9.90;2.13;;;;;;;2.91;100.00;102351.16;5094674;28;20024;-80
2020/12/26 06:05:49;;;;;;;9.18;2.67;;;;;;;2.89;100.00;102350.28;5078691;28;20513;-82
2020/12/26 06:08:16;;;;;;;5.82;2.30;;;;;;;2.92;100.00;102353.81;5097614;28;20032;-80
2020/12/26 06:10:47;;;;;;;8.13;2.45;;;;;;;2.92;100.00;102352.94;5095208;28;20024;-81
2020/12/26 06:13:15;;;;;;;8.65;2.50;;;;;;;2.88;100.00;102353.75;5104613;28;20039;-81
2020/12/26 06:15:47;;;;;;;9.07;2.00;;;;;;;2.92;100.00;102334.66;5094499;28;20097;-81
2020/12/26 06:18:14;;;;;;;8.90;2.47;;;;;;;2.90;100.00;102339.81;5093907;28;20020;-81
2020/12/26 06:20:42;;;;;;;8.45;2.63;;;;;;;2.89;100.00;102335.47;5092058;28;20035;-81
2020/12/26 06:23:08;;;;;;;8.20;2.83;;;;;;;2.88;100.00;102343.28;5092853;28;20401;-80
2020/12/26 06:25:36;;;;;;;11.07;3.35;;;;;;;2.87;100.00;102338.94;5080791;28;20059;-80
2020/12/26 06:28:02;;;;;;;11.75;3.42;;;;;;;2.87;100.00;102334.59;5096846;28;20110;-81
2020/12/26 06:30:29;;;;;;;5.38;2.28;;;;;;;2.88;100.00;102338.94;5081214;28;20107;-81
2020/12/26 06:32:55;;;;;;;18.27;3.20;;;;;;;2.89;100.00;102339.81;5093425;28;20024;-81
2020/12/26 06:35:21;;;;;;;8.20;2.90;;;;;;;2.90;100.00;102338.97;5100080;28;20103;-81
2020/12/26 06:38:12;;;;;;;8.88;3.15;;;;;;;2.88;100.00;102336.34;5098911;28;20133;-81
2020/12/26 06:40:48;;;;;;;5.93;2.47;;;;;;;2.91;100.00;102345.94;5098334;28;20077;-80
2020/12/26 06:43:33;;;;;;;;;;;;;;;2.92;100.00;102327.69;5072907;28;20129;-82
2020/12/26 06:45:59;;;;;;;8.95;3.22;;;;;;;2.91;100.00;102323.28;5093914;28;20465;-81
2020/12/26 06:48:34;;;;;;;7.18;2.42;;;;;;;2.90;100.00;102321.53;5096259;28;20047;-81
2020/12/26 06:51:40;;;;;;;6.80;3.65;;;;;;;2.95;100.00;102308.53;5099772;28;20016;-80
2020/12/26 06:54:08;;;;;;;7.30;3.45;;;;;;;2.91;100.00;102318.06;5096628;28;20059;-81
2020/12/26 06:56:34;;;;;;;11.38;3.15;;;;;;;2.91;100.00;102309.34;5079789;28;20031;-82
2020/12/26 06:59:09;;;;;;;15.35;3.70;;;;;;;2.94;100.00;102323.34;5078886;28;20377;-80
2020/12/26 07:01:43;;;;;;;11.23;3.80;;;;;;;2.94;100.00;102323.34;5091654;28;20032;-80
2020/12/26 07:04:19;;;;;;;6.07;3.30;;;;;;;2.99;100.00;102321.66;5097921;28;20028;-81
2020/12/26 07:06:55;;;;;;;12.15;3.30;;;;;;;2.99;100.00;102321.66;5084313;28;20020;-80
2020/12/26 07:09:44;;;;;;;8.38;3.17;;;;;;;3.08;100.00;102324.38;5073581;28;20415;-81
2020/12/26 07:12:11;;;;;;;7.30;2.50;;;;;;;3.11;100.00;102313.06;5078475;28;20598;-81
2020/12/26 07:14:45;;;;;;;9.02;2.60;;;;;;;3.13;100.00;102318.31;5091578;28;20480;-80
2020/12/26 07:17:13;;;;;;;7.45;3.70;;;;;;;3.11;100.00;102334.84;5094928;28;20032;-81
2020/12/26 07:19:42;;;;;;;8.10;3.08;;;;;;;3.10;100.00;102320.00;5095968;28;20024;-81
2020/12/26 07:22:22;;;;;;;7.18;3.25;;;;;;;3.11;100.00;102320.88;5094915;28;21232;-80
2020/12/26 07:24:52;;;;;;;9.82;3.13;;;;;;;3.06;100.00;102315.66;5097683;28;20557;-81
2020/12/26 07:27:35;;;;;;;8.45;4.18;;;;;;;3.02;100.00;102316.47;5092246;28;20111;-82
2020/12/26 07:30:18;;;;;;;8.63;3.50;;;;;;;3.00;100.00;102318.16;5099679;28;20411;-82
2020/12/26 07:32:47;;;;;;;8.32;3.97;;;;;;;3.02;100.00;102307.75;5097631;28;20047;-82
2020/12/26 07:35:16;;;;;;;8.18;2.97;;;;;;;3.02;100.00;102310.38;5079341;28;20035;-81
2020/12/26 07:37:51;;;;;;;9.55;2.92;;;;;;;3.04;100.00;102308.63;5098294;28;20117;-81
2020/12/26 07:40:21;;;;;;;12.23;3.30;;;;;;;3.02;99.92;102315.59;5102109;28;20758;-82
2020/12/26 07:42:47;;;;;;;5.85;2.83;;;;;;;3.01;100.00;102299.06;5099137;28;20039;-83
2020/12/26 07:45:17;;;;;;;5.13;2.10;;;;;;;3.02;99.42;102295.56;5099179;28;20036;-81
2020/12/26 07:47:44;;;;;;;8.85;2.50;;;;;;;2.98;99.73;102299.00;5098005;28;20027;-81
2020/12/26 07:50:10;;;;;;;4.03;2.60;;;;;;;2.89;100.00;102293.69;5099086;28;20023;-82
2020/12/26 07:52:36;;;;;;;9.65;3.45;;;;;;;2.83;100.00;102296.25;5098806;28;20019;-81
2020/12/26 07:55:03;;;;;;;9.07;2.90;;;;;;;2.84;100.00;102284.94;5100086;28;20020;-82
2020/12/26 07:57:29;;;;;;;6.85;3.53;;;;;;;2.84;100.00;102285.81;5099065;28;20077;-82
2020/12/26 07:59:54;;;;;;;7.75;3.08;;;;;;;2.89;100.00;102290.19;5100353;28;20024;-83
2020/12/26 08:02:20;;;;;;;9.35;3.60;;;;;;;2.91;100.00;102284.13;5091651;28;20032;-82
2020/12/26 08:04:47;;;;;;;6.72;3.08;;;;;;;2.99;100.00;102277.25;5093795;28;20027;-82
2020/12/26 08:07:17;;;;;;;8.63;3.97;;;;;;;3.08;99.45;102274.72;5095835;28;20484;-82
2020/12/26 08:09:53;;;;;;;9.93;3.42;;;;;;;3.15;99.29;102280.88;5102038;28;20062;-82
2020/12/26 08:12:20;;;;;;;5.68;2.05;;;;;;;3.17;98.60;102263.50;5094802;28;20042;-81
2020/12/26 08:14:58;;;;;;;5.60;2.45;;;;;;;3.25;98.20;102268.78;5094916;28;20080;-81
2020/12/26 08:17:24;;;;;;;7.93;2.38;;;;;;;3.26;97.54;102263.56;5096452;28;20486;-82
2020/12/26 08:20:00;;;;;;;8.23;2.85;;;;;;;3.28;97.45;102268.81;5087822;28;20036;-82
2020/12/26 08:22:26;;;;;;;14.60;2.95;;;;;;;3.29;97.77;102253.13;5093438;28;20028;-81
2020/12/26 08:25:09;;;;;;;6.70;2.40;;;;;;;3.32;97.21;102255.78;5093813;28;20527;-82
2020/12/26 08:27:35;;;;;;;7.65;2.25;;;;;;;3.33;97.25;102248.81;5098666;28;20035;-81
2020/12/26 08:30:05;;;;;;;6.97;2.70;;;;;;;3.29;97.85;102241.81;5095731;28;20019;-82
2020/12/26 08:32:36;;;;;;;8.48;2.47;;;;;;;3.32;98.16;102234.88;5092517;28;20566;-81
2020/12/26 08:35:02;;;;;;;8.52;2.60;;;;;;;3.30;97.55;102231.34;5075151;28;20036;-82
2020/12/26 08:37:32;;;;;;;13.27;2.60;;;;;;;3.32;97.31;102224.41;5076399;28;20032;-82
2020/12/26 08:40:00;;;;;;;7.20;2.28;;;;;;;3.36;97.95;102227.91;5097417;28;20442;-82
2020/12/26 08:42:28;;;;;;;6.32;2.05;;;;;;;3.35;96.96;102228.78;5091791;28;20081;-82
2020/12/26 08:44:53;;;;;;;8.32;2.10;;;;;;;3.38;96.83;102234.91;5071559;28;20024;-82
2020/12/26 08:47:28;;;;;;;7.00;2.78;;;;;;;3.41;97.25;102233.19;5091335;28;20111;-81
2020/12/26 08:49:53;;;;;;;4.57;2.15;;;;;;;3.45;96.71;102234.94;5093700;28;20032;-81
2020/12/26 08:52:25;;;;;;;6.53;2.60;;;;;;;3.52;96.88;102236.75;5070496;28;20101;-81
2020/12/26 08:55:05;;;;;;;8.82;2.33;;;;;;;3.51;96.11;102235.84;5093616;28;20020;-81
2020/12/26 08:57:31;;;;;;;3.10;2.17;;;;;;;3.51;95.66;102243.69;5097446;28;20035;-81
2020/12/26 09:00:20;;;;;;;6.43;3.22;;;;;;;3.48;95.20;102241.09;5073838;28;20027;-81
2020/12/26 09:02:46;;;;;;;5.07;2.15;;;;;;;3.50;95.08;102241.09;5095755;28;20403;-82
2020/12/26 09:05:28;;;;;;;4.88;2.10;;;;;;;3.54;95.17;102238.50;5092084;28;20183;-79
2020/12/26 09:08:26;;;;;;;4.60;1.90;;;;;;;3.56;95.18;102228.91;5092532;28;20027;-79
2020/12/26 09:11:02;;;;;;;6.07;2.10;;;;;;;3.55;94.28;102219.34;5071102;28;20042;-82
2020/12/26 09:13:36;;;;;;;3.50;1.95;;;;;;;3.56;94.65;102234.16;5088412;28;20040;-79
2020/12/26 09:16:02;;;;;;;8.15;2.08;;;;;;;3.52;94.60;102218.47;5091459;28;20491;-81
2020/12/26 09:18:34;;;;;;;5.13;2.55;;;;;;;3.49;94.58;102213.19;5063280;28;20028;-82
2020/12/26 09:20:59;;;;;;;7.93;2.38;;;;;;;3.47;94.08;102223.66;5095568;28;20019;-81
2020/12/26 09:23:32;;;;;;;4.03;1.70;;;;;;;3.46;94.05;102218.41;5074972;28;20038;-80
2020/12/26 09:26:27;;;;;;;7.50;2.97;;;;;;;3.41;94.54;102207.91;5092801;28;20096;-82
2020/12/26 09:28:56;;;;;;;4.50;2.15;;;;;;;3.41;94.80;102205.28;5095994;28;20028;-79
2020/12/26 09:31:29;;;;;;;8.43;2.85;;;;;;;3.37;94.71;102198.31;5093252;28;20543;-81
2020/12/26 09:33:57;;;;;;;8.15;2.72;;;;;;;3.42;95.31;102204.47;5094200;28;20039;-80
2020/12/26 09:36:24;;;;;;;9.00;2.75;;;;;;;3.41;94.86;102187.00;5094637;28;20039;-81
2020/12/26 09:38:50;;;;;;;11.43;2.80;;;;;;;3.44;95.53;102186.16;5098027;28;20073;-80
2020/12/26 09:41:18;;;;;;;9.82;2.83;;;;;;;3.44;95.16;102184.41;5072824;28;20140;-80
2020/12/26 09:43:46;;;;;;;6.75;2.40;;;;;;;3.43;95.26;102181.81;5079790;28;20054;-79
2020/12/26 09:46:12;;;;;;;8.25;2.90;;;;;;;3.43;95.24;102187.03;5093239;28;20024;-80
2020/12/26 09:48:37;;;;;;;7.70;3.20;;;;;;;3.45;95.22;102191.38;5095686;28;20023;-78
2020/12/26 09:51:09;;;;;;;5.30;3.00;;;;;;;3.45;95.48;102178.31;5094627;28;20012;-79
2020/12/26 09:53:34;;;;;;;7.72;3.35;;;;;;;3.49;95.20;102176.59;5101059;28;20024;-81
2020/12/26 09:55:59;;;;;;;10.50;3.08;;;;;;;3.48;95.26;102180.09;5099096;28;20651;-81
2020/12/26 09:58:25;;;;;;;7.63;3.05;;;;;;;3.49;95.39;102179.22;5101231;28;20024;-79
2020/12/26 10:00:50;;;;;;;10.85;2.78;;;;;;;3.48;95.10;102172.25;5098583;28;20028;-80
2020/12/26 10:03:15;;;;;;;8.70;3.25;;;;;;;3.53;94.80;102174.03;5079307;28;20759;-81
2020/12/26 10:05:41;;;;;;;14.68;3.53;;;;;;;3.57;95.12;102172.31;5092115;28;20118;-79
2020/12/26 10:08:06;;;;;;;6.95;3.35;;;;;;;3.57;95.11;102177.53;5096692;28;20027;-79
2020/12/26 10:10:32;;;;;;;7.25;3.10;;;;;;;3.56;94.45;102174.03;5094939;28;20667;-79
2020/12/26 10:12:57;;;;;;;6.85;3.00;;;;;;;3.58;95.07;102174.06;5068894;28;20044;-79
2020/12/26 10:15:22;;;;;;;10.27;3.75;;;;;;;3.59;95.26;102168.81;5074322;28;20060;-82
2020/12/26 10:17:49;;;;;;;5.43;2.40;;;;;;;3.58;95.48;102172.31;5073479;28;20017;-81
2020/12/26 10:20:15;;;;;;;7.15;3.17;;;;;;;3.59;94.88;102173.19;5071128;28;20037;-80
2020/12/26 10:22:40;;;;;;;7.25;2.92;;;;;;;3.60;95.02;102167.94;5078062;28;20058;-80
2020/12/26 10:25:05;;;;;;;7.80;2.88;;;;;;;3.66;95.20;102168.84;5076549;28;20036;-80
2020/12/26 10:27:31;;;;;;;8.20;3.17;;;;;;;3.72;95.18;102150.59;5076645;28;20035;-80
2020/12/26 10:29:57;;;;;;;8.40;3.35;;;;;;;3.73;94.85;102144.50;5071791;28;20485;-80
2020/12/26 10:32:22;;;;;;;8.07;2.92;;;;;;;3.71;94.17;102147.09;5076656;28;20028;-80
2020/12/26 10:34:47;;;;;;;8.75;3.13;;;;;;;3.72;94.90;102133.16;5073375;28;20020;-80
2020/12/26 10:37:15;;;;;;;6.47;2.75;;;;;;;3.69;94.67;102134.88;5079831;28;20035;-80
2020/12/26 10:39:42;;;;;;;7.38;2.97;;;;;;;3.73;94.59;102128.81;5069114;28;20066;-80
2020/12/26 10:42:08;;;;;;;6.60;3.25;;;;;;;3.78;94.74;102133.19;5076633;28;20038;-79
2020/12/26 10:44:33;;;;;;;9.00;3.22;;;;;;;3.84;94.99;102129.72;5079833;28;20032;-84
2020/12/26 10:46:59;;;;;;;6.45;2.80;;;;;;;3.86;94.67;102123.59;5069906;28;20089;-79
2020/12/26 10:49:24;;;;;;;9.45;3.22;;;;;;;3.83;94.55;102127.97;5083716;28;20522;-81
2020/12/26 10:51:49;;;;;;;9.23;3.20;;;;;;;3.83;94.82;102113.16;5077616;28;20036;-79
2020/12/26 10:54:15;;;;;;;8.32;2.60;;;;;;;3.85;94.83;102113.16;5081845;28;20023;-79
2020/12/26 10:56:47;;;;;;;6.82;3.13;;;;;;;3.85;94.67;102113.16;5076455;28;20028;-79
2020/12/26 10:59:13;;;;;;;7.55;3.00;;;;;;;3.80;95.06;102115.75;5080962;28;20713;-78
2020/12/26 11:01:39;;;;;;;8.75;3.22;;;;;;;3.79;94.34;102111.38;5075648;28;20020;-78
2020/12/26 11:04:04;;;;;;;9.02;3.03;;;;;;;3.74;94.79;102112.25;5080077;28;20089;-79
2020/12/26 11:06:30;;;;;;;12.35;3.67;;;;;;;3.76;95.06;102102.66;5077079;28;20039;-79
2020/12/26 11:08:55;;;;;;;6.00;3.25;;;;;;;3.78;95.00;102093.97;5081958;28;20024;-79
2020/12/26 11:11:21;;;;;;;5.63;3.15;;;;;;;3.87;94.32;102088.75;5082713;28;20024;-79
2020/12/26 11:13:46;;;;;;;11.30;3.35;;;;;;;3.90;94.03;102090.50;5074910;28;20043;-77
2020/12/26 11:16:15;;;;;;;7.32;2.88;;;;;;;3.99;93.57;102077.44;5069993;28;20024;-79
2020/12/26 11:18:42;;;;;;;6.10;2.83;;;;;;;4.01;93.72;102064.38;5070347;28;20067;-79
2020/12/26 11:21:08;;;;;;;5.13;2.80;;;;;;;4.08;93.85;102059.16;5070861;28;20476;-81
2020/12/26 11:23:33;;;;;;;9.20;2.88;;;;;;;4.13;93.79;102067.88;5078529;28;20111;-80
2020/12/26 11:25:58;;;;;;;7.15;2.65;;;;;;;4.14;93.46;102051.31;5077709;28;20504;-80
2020/12/26 11:28:24;;;;;;;6.60;2.50;;;;;;;4.17;93.61;102047.84;5073325;28;20062;-82
2020/12/26 11:30:49;;;;;;;11.73;3.85;;;;;;;4.13;93.51;102035.63;5070760;28;20093;-84
2020/12/26 11:33:16;;;;;;;5.70;3.53;;;;;;;4.07;93.35;102033.00;5078515;28;20115;-89